Oakland Township, Michigan
Current Conditions -  °F | °C
As of 4:53 AM on Saturday 01 Nov 2014 (Local Time) from KPTK Reporting Station
Broken Clouds Broken Clouds  
Wind Chill: 21°   Ceiling: 3700
Heat Index: 32°   Visibility: 10mi
Dew Point: 25°   Wind: 17mph
Humidity: 75%   Direction: 360°N
Pressure: 30.17"   Gusts: 29mph
Location:  42.7595°N, 83.2105°W
Report Text: KPTK 010853Z AUTO 36015G25KT 10SM BKN037 00/M04 A3017 RMK AO2 PK WND 01026/0830 SLP225 T00001039 51012
Loading
Personal Weather Stations






























Interactive Weather Map
Tropical Storm Tracking
New forecast layout! Learn more

10-Day Weather Forecast

Advertisements
Track Severe Weather on mobile